Time;durP1;ratioP1;P1;durP2;ratioP2;P2;SDS_P1;SDS_P2;PMS_P1;PMS_P2;Temp;Humidity;BMP_temperature;BMP_pressure;BME280_temperature;BME280_humidity;BME280_pressure;Samples;Min_cycle;Max_cycle;Signal;HPM_P1;HPM_P2
2023/12/26 00:00:41;;;;;;;0.60;0.50;;;16.80;54.60;;;;;;6160553;23;20485;-85
2023/12/26 00:03:07;;;;;;;0.70;0.65;;;16.80;54.00;;;;;;6160908;23;20146;-85
2023/12/26 00:05:33;;;;;;;0.73;0.73;;;16.90;54.10;;;;;;6185427;23;20150;-85
2023/12/26 00:08:02;;;;;;;0.73;0.70;;;16.80;54.10;;;;;;6185323;23;20139;-85
2023/12/26 00:10:29;;;;;;;0.77;0.68;;;16.80;54.10;;;;;;6183632;23;20124;-85
2023/12/26 00:12:55;;;;;;;0.85;0.85;;;16.70;54.70;;;;;;6160298;23;20146;-85
2023/12/26 00:15:21;;;;;;;0.60;0.60;;;16.80;54.10;;;;;;6160397;23;20189;-84
2023/12/26 00:17:47;;;;;;;0.70;0.70;;;16.80;54.10;;;;;;6185168;23;20147;-84
2023/12/26 00:20:13;;;;;;;0.70;0.70;;;16.70;54.10;;;;;;6160837;23;20147;-85
2023/12/26 00:22:40;;;;;;;0.70;0.70;;;16.80;54.10;;;;;;6187906;23;20154;-85
2023/12/26 00:25:11;;;;;;;1.00;0.80;;;16.80;54.10;;;;;;6188301;23;20127;-84
2023/12/26 00:27:39;;;;;;;0.80;0.80;;;16.80;54.20;;;;;;6136002;23;20158;-84
2023/12/26 00:30:07;;;;;;;0.68;0.68;;;16.80;54.10;;;;;;6162365;23;20209;-84
2023/12/26 00:32:37;;;;;;;0.80;0.80;;;16.80;54.10;;;;;;6162740;23;20170;-84
2023/12/26 00:35:06;;;;;;;0.77;0.77;;;16.80;54.00;;;;;;6136952;23;20186;-84
2023/12/26 00:37:32;;;;;;;0.80;0.80;;;16.80;54.10;;;;;;6109379;23;20225;-84
2023/12/26 00:39:58;;;;;;;1.17;0.88;;;16.70;54.10;;;;;;6159675;23;20598;-85
2023/12/26 00:42:27;;;;;;;0.68;0.68;;;16.80;54.10;;;;;;6159028;23;20213;-85
2023/12/26 00:44:56;;;;;;;0.85;0.85;;;16.80;54.10;;;;;;6110439;23;20166;-85
2023/12/26 00:47:24;;;;;;;0.60;0.60;;;16.80;54.00;;;;;;6110160;23;20707;-84
2023/12/26 00:49:50;;;;;;;0.70;0.70;;;16.80;54.20;;;;;;6085229;23;20155;-84
2023/12/26 00:52:16;;;;;;;0.73;0.73;;;16.80;54.10;;;;;;6183482;23;20626;-83
2023/12/26 00:54:46;;;;;;;1.02;0.60;;;16.80;54.70;;;;;;6159688;23;20182;-84
2023/12/26 00:57:12;;;;;;;0.60;0.60;;;16.70;54.00;;;;;;6115694;23;20551;-85
2023/12/26 00:59:41;;;;;;;0.70;0.70;;;16.80;54.10;;;;;;6155132;23;20128;-84
2023/12/26 01:02:11;;;;;;;1.00;0.90;;;16.80;54.10;;;;;;6154527;23;20711;-84
2023/12/26 01:04:40;;;;;;;0.80;0.80;;;16.70;54.10;;;;;;6105527;23;20155;-84
2023/12/26 01:07:07;;;;;;;0.80;0.70;;;16.70;54.30;;;;;;6152885;23;20182;-84
2023/12/26 01:09:36;;;;;;;0.63;0.63;;;16.80;54.00;;;;;;6154106;23;20155;-86
2023/12/26 01:12:02;;;;;;;0.98;0.90;;;16.70;54.00;;;;;;6152360;23;20151;-84
2023/12/26 01:17:09;;;;;;;0.65;0.65;;;16.80;54.10;;;;;;6215086;23;20205;-84
2023/12/26 01:19:38;;;;;;;0.75;0.70;;;16.80;54.10;;;;;;6114874;23;20161;-85
2023/12/26 01:22:10;;;;;;;0.70;0.70;;;16.80;54.10;;;;;;6139126;23;20237;-84
2023/12/26 01:24:36;;;;;;;0.90;0.75;;;16.80;54.10;;;;;;6092029;23;20150;-85
2023/12/26 01:27:07;;;;;;;0.60;0.60;;;16.70;54.10;;;;;;6188829;23;20134;-85
2023/12/26 01:29:33;;;;;;;0.88;0.88;;;16.80;54.10;;;;;;6043100;23;20158;-85
2023/12/26 01:31:59;;;;;;;0.73;0.73;;;16.70;54.20;;;;;;6214213;23;20521;-85
2023/12/26 01:34:27;;;;;;;0.95;0.80;;;16.80;54.20;;;;;;6158903;23;20520;-84
2023/12/26 01:36:55;;;;;;;0.88;0.80;;;16.70;54.20;;;;;;6109736;23;20162;-84
2023/12/26 01:39:21;;;;;;;1.05;0.95;;;16.70;54.10;;;;;;6109433;23;20150;-84
2023/12/26 01:41:49;;;;;;;0.80;0.80;;;16.70;54.10;;;;;;6157980;23;20215;-85
2023/12/26 01:44:17;;;;;;;0.73;0.73;;;16.80;54.10;;;;;;6107340;23;20619;-86
2023/12/26 01:46:45;;;;;;;0.70;0.70;;;16.70;54.10;;;;;;6085864;23;20151;-85
2023/12/26 01:49:13;;;;;;;0.88;0.80;;;16.70;54.10;;;;;;6109745;23;20169;-84
2023/12/26 01:51:42;;;;;;;0.82;0.80;;;16.80;54.10;;;;;;6086566;23;20583;-84
2023/12/26 01:54:08;;;;;;;0.80;0.80;;;16.70;54.20;;;;;;6112322;23;20155;-85
2023/12/26 01:56:36;;;;;;;0.85;0.85;;;16.70;54.20;;;;;;6136357;23;20161;-84
2023/12/26 01:59:03;;;;;;;1.10;0.82;;;16.70;54.20;;;;;;6138149;23;20570;-85
2023/12/26 02:01:31;;;;;;;0.70;0.70;;;16.70;54.20;;;;;;6142702;23;20212;-84
2023/12/26 02:04:02;;;;;;;0.63;0.63;;;16.70;54.00;;;;;;6156877;23;20210;-85
2023/12/26 02:06:32;;;;;;;0.90;0.80;;;16.80;54.10;;;;;;6160563;23;20579;-84
2023/12/26 02:09:03;;;;;;;0.63;0.63;;;16.70;54.10;;;;;;6107627;23;20151;-84
2023/12/26 02:11:34;;;;;;;0.77;0.77;;;16.70;54.10;;;;;;6130737;23;20241;-85
2023/12/26 02:14:05;;;;;;;0.80;0.80;;;16.80;54.10;;;;;;6155394;23;20272;-85
2023/12/26 02:16:35;;;;;;;0.70;0.70;;;16.70;54.20;;;;;;6155075;23;20170;-86
2023/12/26 02:19:03;;;;;;;0.60;0.60;;;16.80;54.10;;;;;;6153534;23;20155;-85
2023/12/26 02:21:32;;;;;;;0.95;0.82;;;16.70;54.20;;;;;;6104797;23;20237;-84
2023/12/26 02:24:01;;;;;;;1.10;1.00;;;16.70;54.10;;;;;;6153803;23;20158;-85
2023/12/26 02:26:30;;;;;;;0.70;0.70;;;16.70;54.20;;;;;;6104512;23;20151;-85
2023/12/26 02:28:58;;;;;;;0.82;0.82;;;16.60;54.10;;;;;;6153906;23;20155;-84
2023/12/26 02:31:27;;;;;;;0.70;0.70;;;16.70;54.10;;;;;;6129742;23;20158;-85
2023/12/26 02:33:55;;;;;;;0.73;0.73;;;16.70;54.10;;;;;;6153920;23;20155;-85
2023/12/26 02:36:23;;;;;;;0.75;0.75;;;16.70;54.20;;;;;;6153925;23;20503;-84
2023/12/26 02:38:51;;;;;;;0.70;0.70;;;16.70;54.10;;;;;;6129111;23;20151;-84
2023/12/26 02:41:19;;;;;;;0.90;0.90;;;16.70;54.20;;;;;;6153710;23;20222;-85
2023/12/26 02:43:47;;;;;;;0.80;0.80;;;16.80;54.20;;;;;;6180294;23;20206;-84
2023/12/26 02:46:14;;;;;;;0.80;0.80;;;16.70;54.20;;;;;;6134058;23;20159;-84
2023/12/26 02:48:42;;;;;;;0.70;0.70;;;16.70;54.20;;;;;;6085696;23;20482;-85
2023/12/26 02:51:08;;;;;;;0.68;0.68;;;16.60;54.10;;;;;;6109000;23;20181;-85
2023/12/26 02:53:34;;;;;;;0.80;0.80;;;16.80;54.10;;;;;;6133547;23;20155;-85
2023/12/26 02:55:59;;;;;;;0.77;0.77;;;16.70;54.10;;;;;;6159838;23;20166;-85
2023/12/26 02:58:42;;;;;;;0.60;0.60;;;16.70;54.00;;;;;;6160830;23;20131;-84
2023/12/26 03:01:25;;;;;;;0.85;0.82;;;16.60;54.10;;;;;;6111284;23;20598;-85
2023/12/26 03:03:51;;;;;;;0.80;0.70;;;16.70;54.20;;;;;;6111002;23;20155;-85
2023/12/26 03:06:16;;;;;;;0.70;0.70;;;16.70;54.00;;;;;;6184367;23;20216;-85
2023/12/26 03:08:56;;;;;;;0.95;0.88;;;16.70;54.10;;;;;;6185271;23;20231;-84
2023/12/26 03:11:36;;;;;;;0.70;0.70;;;16.70;54.10;;;;;;6111678;23;20601;-85
2023/12/26 03:14:15;;;;;;;0.90;0.90;;;16.70;54.00;;;;;;6135775;23;20201;-84
2023/12/26 03:16:54;;;;;;;0.75;0.75;;;16.80;54.00;;;;;;6111294;23;20166;-85
2023/12/26 03:19:33;;;;;;;0.70;0.70;;;16.70;54.00;;;;;;6086852;23;20178;-85
2023/12/26 03:22:11;;;;;;;0.70;0.70;;;16.70;54.00;;;;;;6135875;23;20147;-84
2023/12/26 03:24:48;;;;;;;0.77;0.70;;;16.70;54.00;;;;;;6136071;23;20534;-84
2023/12/26 03:27:26;;;;;;;0.80;0.80;;;16.60;53.90;;;;;;6111716;23;20147;-84
2023/12/26 03:30:03;;;;;;;0.77;0.77;;;16.70;53.90;;;;;;6111735;23;20147;-84
2023/12/26 03:32:31;;;;;;;1.00;0.90;;;16.70;54.10;;;;;;6087013;23;20150;-85
2023/12/26 03:35:07;;;;;;;0.70;0.70;;;16.70;54.00;;;;;;6135638;23;20269;-85
2023/12/26 03:37:43;;;;;;;0.75;0.65;;;16.70;54.10;;;;;;6159242;23;20154;-84
2023/12/26 03:40:09;;;;;;;0.70;0.70;;;16.70;54.00;;;;;;6086693;23;20241;-85
2023/12/26 03:42:35;;;;;;;0.95;0.80;;;16.70;54.00;;;;;;6184306;23;20273;-85
2023/12/26 03:45:09;;;;;;;0.85;0.85;;;16.70;54.10;;;;;;6185528;23;20216;-85
2023/12/26 03:47:42;;;;;;;0.70;0.70;;;16.60;54.10;;;;;;6135731;23;20586;-85
2023/12/26 03:50:16;;;;;;;0.98;0.88;;;16.70;54.00;;;;;;6111491;23;20467;-84
2023/12/26 03:52:50;;;;;;;0.80;0.80;;;16.70;54.10;;;;;;6135802;23;20178;-84
2023/12/26 03:55:23;;;;;;;0.73;0.73;;;16.70;54.10;;;;;;6111245;23;20589;-85
2023/12/26 03:57:55;;;;;;;0.95;0.85;;;16.70;54.10;;;;;;6135813;23;20204;-85
2023/12/26 04:00:29;;;;;;;0.93;0.88;;;16.70;54.10;;;;;;6111322;23;20151;-84
2023/12/26 04:03:02;;;;;;;0.80;0.80;;;16.60;54.00;;;;;;6088130;23;20155;-85
2023/12/26 04:08:05;;;;;;;0.90;0.90;;;16.60;54.10;;;;;;6216328;23;20202;-85
2023/12/26 04:10:37;;;;;;;0.75;0.75;;;16.60;54.10;;;;;;6092455;23;20182;-85
2023/12/26 04:13:08;;;;;;;0.80;0.80;;;16.70;54.10;;;;;;6115716;23;20150;-85
2023/12/26 04:15:39;;;;;;;0.60;0.60;;;16.70;53.90;;;;;;6115994;23;20255;-85
2023/12/26 04:18:10;;;;;;;0.77;0.77;;;16.70;53.90;;;;;;6140508;23;20154;-85
2023/12/26 04:20:40;;;;;;;1.00;0.90;;;16.70;54.00;;;;;;6140125;23;20158;-84
2023/12/26 04:23:11;;;;;;;0.75;0.75;;;16.60;54.10;;;;;;6116112;23;20475;-85
2023/12/26 04:25:41;;;;;;;0.88;0.88;;;16.60;54.10;;;;;;6115780;23;20157;-85
2023/12/26 04:28:11;;;;;;;0.85;0.85;;;16.60;53.90;;;;;;6140085;23;20161;-84
2023/12/26 04:30:41;;;;;;;0.63;0.60;;;16.60;53.90;;;;;;6140326;23;20613;-83
2023/12/26 04:33:12;;;;;;;0.90;0.85;;;16.80;54.00;;;;;;6140236;23;20173;-84
2023/12/26 04:35:42;;;;;;;0.90;0.80;;;16.70;53.90;;;;;;6162080;23;20634;-85
2023/12/26 04:40:37;;;;;;;1.13;0.80;;;16.60;54.00;;;;;;6216355;23;20194;-84
2023/12/26 04:43:08;;;;;;;1.10;1.00;;;16.60;54.00;;;;;;6115417;23;20236;-84
2023/12/26 04:45:37;;;;;;;0.70;0.60;;;16.70;53.80;;;;;;6092962;23;20177;-84
2023/12/26 04:48:07;;;;;;;1.20;1.00;;;16.60;53.80;;;;;;6165360;23;20131;-85
2023/12/26 04:50:37;;;;;;;0.73;0.70;;;16.70;53.80;;;;;;6115980;23;20462;-84
2023/12/26 04:53:06;;;;;;;0.73;0.73;;;16.70;53.90;;;;;;6115351;23;20146;-84
2023/12/26 04:55:34;;;;;;;0.95;0.80;;;16.60;53.90;;;;;;6139690;23;20642;-85
2023/12/26 04:58:03;;;;;;;1.05;0.95;;;16.60;53.80;;;;;;6115203;23;20204;-85
2023/12/26 05:00:29;;;;;;;0.95;0.88;;;16.70;54.00;;;;;;6155661;23;20723;-84
2023/12/26 05:03:00;;;;;;;1.02;0.82;;;16.60;53.80;;;;;;6139627;23;20154;-84
2023/12/26 05:05:29;;;;;;;1.00;0.88;;;16.60;53.80;;;;;;6168351;23;20229;-84
2023/12/26 05:07:57;;;;;;;1.10;1.00;;;16.60;53.80;;;;;;6110110;23;20498;-84
2023/12/26 05:10:26;;;;;;;0.80;0.68;;;16.60;53.70;;;;;;6110254;23;20158;-84
2023/12/26 05:12:55;;;;;;;0.90;0.90;;;16.60;53.70;;;;;;6159347;23;20205;-85
2023/12/26 05:15:21;;;;;;;0.82;0.80;;;16.60;53.70;;;;;;6134019;23;20221;-86
2023/12/26 05:17:47;;;;;;;1.10;0.93;;;16.60;53.80;;;;;;6159099;23;20139;-84
2023/12/26 05:20:18;;;;;;;0.80;0.73;;;16.60;53.70;;;;;;6183802;23;20142;-84
2023/12/26 05:22:44;;;;;;;0.68;0.68;;;16.70;53.90;;;;;;6153899;23;20260;-84
2023/12/26 05:27:44;;;;;;;0.80;0.80;;;16.70;53.70;;;;;;6185236;23;20238;-85
2023/12/26 05:30:14;;;;;;;0.65;0.65;;;16.70;53.80;;;;;;6133169;23;20537;-84
2023/12/26 05:32:46;;;;;;;0.77;0.70;;;16.70;53.60;;;;;;6133506;23;20213;-85
2023/12/26 05:35:15;;;;;;;0.77;0.75;;;16.70;53.70;;;;;;6158299;23;20187;-85
2023/12/26 05:37:45;;;;;;;0.60;0.60;;;16.60;53.70;;;;;;6183231;23;20244;-84
2023/12/26 05:40:15;;;;;;;1.17;1.08;;;16.70;53.80;;;;;;6158601;23;20150;-86
2023/12/26 05:42:46;;;;;;;0.98;0.88;;;16.60;53.70;;;;;;6134600;23;20162;-84
2023/12/26 05:45:12;;;;;;;1.08;0.98;;;16.70;53.70;;;;;;6147645;23;20592;-85
2023/12/26 05:47:41;;;;;;;1.05;0.93;;;16.70;53.70;;;;;;6123142;23;20144;-85
2023/12/26 05:50:11;;;;;;;0.90;0.80;;;16.70;53.70;;;;;;6075418;23;20152;-85
2023/12/26 05:52:40;;;;;;;1.10;1.00;;;16.70;53.70;;;;;;6075335;23;20162;-85
2023/12/26 05:55:10;;;;;;;0.80;0.80;;;16.70;53.70;;;;;;6051611;23;20187;-84
2023/12/26 05:57:39;;;;;;;1.23;0.90;;;16.60;53.60;;;;;;6028023;23;20167;-84
2023/12/26 06:00:09;;;;;;;0.80;0.80;;;16.70;53.70;;;;;;6051596;23;20239;-84
2023/12/26 06:02:38;;;;;;;0.70;0.70;;;16.70;53.60;;;;;;6028231;23;20491;-85
2023/12/26 06:05:07;;;;;;;1.00;0.80;;;16.70;53.70;;;;;;6051978;23;20159;-84
2023/12/26 06:07:36;;;;;;;0.85;0.80;;;16.70;53.70;;;;;;6051822;23;20191;-84
2023/12/26 06:10:04;;;;;;;0.68;0.68;;;16.60;53.60;;;;;;6028369;23;20156;-84
2023/12/26 06:12:33;;;;;;;0.93;0.82;;;16.70;53.50;;;;;;6052060;23;20194;-85
2023/12/26 06:15:02;;;;;;;1.08;0.98;;;16.70;53.50;;;;;;6027739;23;20188;-85
2023/12/26 06:17:30;;;;;;;0.80;0.80;;;16.70;53.60;;;;;;6158170;23;20237;-85
2023/12/26 06:19:58;;;;;;;0.73;0.73;;;16.70;53.70;;;;;;6158857;23;20178;-85
2023/12/26 06:22:24;;;;;;;0.70;0.70;;;16.60;53.50;;;;;;6132639;23;20154;-85
2023/12/26 06:24:51;;;;;;;1.10;1.00;;;16.70;53.50;;;;;;6157907;23;20489;-84
2023/12/26 06:27:19;;;;;;;0.70;0.70;;;16.70;54.30;;;;;;6156224;23;20198;-85
2023/12/26 06:29:47;;;;;;;1.10;1.00;;;16.60;53.40;;;;;;6132735;23;20161;-85
2023/12/26 06:32:14;;;;;;;1.08;0.95;;;16.70;53.50;;;;;;6109103;23;20154;-85
2023/12/26 06:34:42;;;;;;;0.95;0.90;;;16.70;53.50;;;;;;6158654;23;20297;-85
2023/12/26 06:37:09;;;;;;;0.80;0.80;;;16.70;53.40;;;;;;6109729;23;20161;-85
2023/12/26 06:39:39;;;;;;;0.82;0.80;;;16.70;53.50;;;;;;6109646;23;20578;-84
2023/12/26 06:42:06;;;;;;;0.90;0.90;;;16.70;53.50;;;;;;6110166;23;20200;-85
2023/12/26 06:44:33;;;;;;;0.70;0.70;;;16.60;53.50;;;;;;6158157;23;20594;-84
2023/12/26 06:47:00;;;;;;;1.00;0.93;;;16.60;53.50;;;;;;6109630;23;20158;-86
2023/12/26 06:49:27;;;;;;;0.85;0.85;;;16.60;53.50;;;;;;6109205;23;20660;-85
2023/12/26 06:51:54;;;;;;;0.65;0.65;;;16.60;53.50;;;;;;6133837;23;20159;-85
2023/12/26 06:54:20;;;;;;;0.88;0.70;;;16.60;53.60;;;;;;6133168;23;20157;-84
2023/12/26 06:56:47;;;;;;;1.13;1.02;;;16.60;53.50;;;;;;6134886;23;20154;-85
2023/12/26 06:59:14;;;;;;;1.27;1.00;;;16.60;53.50;;;;;;6215025;23;20506;-85
2023/12/26 07:01:46;;;;;;;0.85;0.73;;;16.60;53.40;;;;;;6139121;23;20154;-86
2023/12/26 07:04:12;;;;;;;1.08;0.95;;;16.60;53.30;;;;;;6187632;23;20134;-84
2023/12/26 07:06:38;;;;;;;1.00;0.90;;;16.70;54.10;;;;;;6158027;23;20436;-85
2023/12/26 07:09:04;;;;;;;0.85;0.82;;;16.60;53.60;;;;;;6158613;23;20146;-85
2023/12/26 07:11:31;;;;;;;0.70;0.70;;;16.60;53.70;;;;;;6158730;23;20154;-85
2023/12/26 07:13:57;;;;;;;0.85;0.80;;;16.50;53.50;;;;;;6158764;23;20173;-85
2023/12/26 07:16:23;;;;;;;0.73;0.73;;;16.60;53.60;;;;;;6134311;23;20174;-85
2023/12/26 07:18:50;;;;;;;0.80;0.80;;;16.60;52.90;;;;;;6158837;23;20198;-84
2023/12/26 07:21:17;;;;;;;0.70;0.70;;;16.70;53.20;;;;;;6185852;23;20127;-85
2023/12/26 07:23:46;;;;;;;1.02;0.95;;;16.70;53.20;;;;;;6159312;23;20184;-84
2023/12/26 07:26:17;;;;;;;1.02;0.80;;;16.70;53.10;;;;;;6160595;23;20151;-85
2023/12/26 07:28:44;;;;;;;0.80;0.80;;;16.80;52.80;;;;;;6113838;23;20198;-85
2023/12/26 07:31:19;;;;;;;0.80;0.80;;;16.80;52.60;;;;;;6190816;23;20133;-85
2023/12/26 07:33:46;;;;;;;1.10;1.00;;;16.80;52.60;;;;;;6162103;23;20184;-86
2023/12/26 07:36:13;;;;;;;0.90;0.77;;;16.70;52.80;;;;;;6189701;23;20167;-85
2023/12/26 07:41:05;;;;;;;1.00;1.00;;;16.80;52.60;;;;;;6205408;23;20517;-84
2023/12/26 07:43:32;;;;;;;0.80;0.80;;;16.80;52.60;;;;;;6191561;23;20572;-84
2023/12/26 07:45:58;;;;;;;0.85;0.85;;;16.80;52.70;;;;;;6192491;23;20161;-84
2023/12/26 07:48:23;;;;;;;0.73;0.70;;;16.80;52.60;;;;;;6193323;23;20130;-85
2023/12/26 07:51:02;;;;;;;0.70;0.70;;;16.80;52.40;;;;;;6175046;23;20246;-84
2023/12/26 07:53:32;;;;;;;0.60;0.60;;;16.80;52.40;;;;;;6170694;23;20209;-84
2023/12/26 07:56:00;;;;;;;0.90;0.90;;;16.80;52.20;;;;;;6173263;23;20264;-83
2023/12/26 07:58:26;;;;;;;0.88;0.80;;;16.80;52.60;;;;;;6194961;23;20198;-84
2023/12/26 08:00:56;;;;;;;0.88;0.82;;;16.80;52.50;;;;;;6193558;23;20146;-84
2023/12/26 08:03:22;;;;;;;1.00;0.80;;;16.80;52.20;;;;;;6119678;23;20154;-84
2023/12/26 08:05:48;;;;;;;0.80;0.80;;;16.80;52.30;;;;;;6192067;23;20209;-84
2023/12/26 08:08:14;;;;;;;0.88;0.80;;;16.80;52.40;;;;;;6191828;23;20503;-84
2023/12/26 08:10:42;;;;;;;0.98;0.60;;;16.90;52.60;;;;;;6191998;23;20554;-84
2023/12/26 08:13:08;;;;;;;0.60;0.60;;;16.90;52.00;;;;;;6167489;23;20197;-84
2023/12/26 08:15:34;;;;;;;0.85;0.85;;;16.90;52.30;;;;;;6167957;23;20185;-84
2023/12/26 08:18:00;;;;;;;0.95;0.88;;;16.80;52.40;;;;;;6190367;23;20138;-84
2023/12/26 08:20:26;;;;;;;1.17;0.93;;;16.90;52.40;;;;;;6166029;23;20142;-83
2023/12/26 08:22:52;;;;;;;0.90;0.82;;;16.90;52.00;;;;;;6164705;23;20223;-84
2023/12/26 08:25:19;;;;;;;0.82;0.82;;;16.90;52.30;;;;;;6140565;23;20146;-84
2023/12/26 08:27:45;;;;;;;0.93;0.80;;;17.00;52.00;;;;;;6188746;23;20161;-84
2023/12/26 08:30:11;;;;;;;0.80;0.65;;;16.90;52.10;;;;;;6190433;23;20769;-83
2023/12/26 08:32:37;;;;;;;1.00;0.90;;;16.90;52.50;;;;;;6217038;23;20185;-84
2023/12/26 08:35:03;;;;;;;0.93;0.82;;;16.90;52.40;;;;;;6166521;23;20177;-84
2023/12/26 08:37:31;;;;;;;0.80;0.80;;;16.80;52.60;;;;;;6165208;23;20142;-85
2023/12/26 08:39:57;;;;;;;0.90;0.80;;;16.90;52.60;;;;;;6099088;23;20163;-84
2023/12/26 08:42:26;;;;;;;0.60;0.55;;;16.90;52.70;;;;;;6183471;23;20353;-84
2023/12/26 08:44:52;;;;;;;0.75;0.75;;;16.90;52.60;;;;;;6114849;23;20161;-84
2023/12/26 08:47:18;;;;;;;1.05;0.73;;;17.00;51.80;;;;;;6189613;23;20138;-85
2023/12/26 08:49:59;;;;;;;0.88;0.77;;;17.00;51.60;;;;;;6216994;23;20130;-83
2023/12/26 08:52:40;;;;;;;0.88;0.80;;;17.00;52.20;;;;;;6140412;23;20204;-84
2023/12/26 08:55:21;;;;;;;0.60;0.60;;;17.00;52.10;;;;;;6140254;23;20220;-84
2023/12/26 08:58:02;;;;;;;1.00;0.90;;;17.00;51.80;;;;;;6117426;23;20184;-84
2023/12/26 09:00:45;;;;;;;0.80;0.70;;;16.90;52.20;;;;;;6117547;23;20157;-84
2023/12/26 09:03:25;;;;;;;0.80;0.80;;;17.00;51.70;;;;;;6118933;23;20157;-84
2023/12/26 09:05:50;;;;;;;0.70;0.70;;;17.00;51.90;;;;;;6141204;23;20189;-84
2023/12/26 09:08:30;;;;;;;0.80;0.80;;;17.10;52.20;;;;;;6219264;23;20146;-85
2023/12/26 09:11:08;;;;;;;0.70;0.70;;;17.20;51.70;;;;;;6117699;23;20164;-85
2023/12/26 09:13:41;;;;;;;0.70;0.70;;;17.20;51.70;;;;;;6143207;23;20146;-85
2023/12/26 09:16:18;;;;;;;1.30;0.73;;;17.20;51.60;;;;;;6144430;23;20185;-85
2023/12/26 09:18:56;;;;;;;0.75;0.65;;;17.20;52.00;;;;;;6118677;23;20202;-85
2023/12/26 09:21:28;;;;;;;1.13;0.77;;;17.20;51.50;;;;;;6092591;23;20515;-87
2023/12/26 09:23:54;;;;;;;1.73;0.80;;;17.20;51.20;;;;;;6142706;23;20146;-83
2023/12/26 09:26:28;;;;;;;0.85;0.77;;;17.10;51.80;;;;;;6165933;23;20233;-85
2023/12/26 09:29:01;;;;;;;0.80;0.77;;;17.20;52.00;;;;;;6116409;23;20161;-84
2023/12/26 09:31:35;;;;;;;0.70;0.70;;;17.30;51.10;;;;;;6118693;23;20187;-86
2023/12/26 09:34:09;;;;;;;0.77;0.75;;;17.20;51.70;;;;;;6125254;23;20177;-83
2023/12/26 09:36:43;;;;;;;0.73;0.70;;;17.20;51.70;;;;;;6147980;23;20647;-85
2023/12/26 09:39:08;;;;;;;0.80;0.80;;;17.20;51.30;;;;;;6120350;23;20164;-85
2023/12/26 09:41:34;;;;;;;2.25;0.70;;;17.20;51.60;;;;;;6148188;23;20194;-86
2023/12/26 09:44:00;;;;;;;0.85;0.80;;;17.30;51.80;;;;;;6172557;23;20164;-86
2023/12/26 09:46:31;;;;;;;2.03;0.80;;;17.30;52.10;;;;;;6200627;23;20145;-86
2023/12/26 09:48:57;;;;;;;0.60;0.60;;;17.30;52.10;;;;;;6122975;23;20200;-85
2023/12/26 09:51:27;;;;;;;2.15;0.90;;;17.30;52.10;;;;;;6197927;23;20141;-86
2023/12/26 09:54:01;;;;;;;1.27;0.90;;;17.30;51.60;;;;;;6096688;23;20154;-86
2023/12/26 09:56:28;;;;;;;0.63;0.57;;;17.30;52.40;;;;;;6120034;23;20185;-85
2023/12/26 09:59:01;;;;;;;0.80;0.80;;;17.30;52.30;;;;;;6168998;23;20209;-86
2023/12/26 10:01:27;;;;;;;1.00;0.82;;;17.30;52.20;;;;;;6146487;23;20175;-85
2023/12/26 10:04:03;;;;;;;1.88;0.85;;;17.30;52.70;;;;;;6140441;23;20185;-85
2023/12/26 10:06:40;;;;;;;1.10;1.00;;;17.40;52.60;;;;;;6124380;23;20165;-85
2023/12/26 10:09:06;;;;;;;0.80;0.80;;;17.40;52.40;;;;;;6173027;23;20590;-84
2023/12/26 10:11:42;;;;;;;1.42;0.90;;;17.30;52.20;;;;;;6149007;23;20152;-85
2023/12/26 10:14:26;;;;;;;0.80;0.73;;;17.30;52.70;;;;;;6123277;23;20145;-85
2023/12/26 10:17:07;;;;;;;2.65;0.82;;;17.40;52.80;;;;;;6104316;23;20162;-85
2023/12/26 10:22:17;;;;;;;1.10;0.63;;;17.40;52.50;;;;;;6222143;23;20204;-85
2023/12/26 10:24:51;;;;;;;1.25;0.73;;;17.40;53.50;;;;;;6145276;23;20180;-85
2023/12/26 10:27:26;;;;;;;0.70;0.60;;;17.40;53.20;;;;;;6121956;23;20165;-85
2023/12/26 10:30:02;;;;;;;3.53;0.80;;;17.40;53.20;;;;;;6123804;23;20141;-85
2023/12/26 10:32:36;;;;;;;1.13;0.80;;;17.40;53.60;;;;;;6122456;23;20603;-84
2023/12/26 10:35:22;;;;;;;1.67;0.80;;;17.40;53.10;;;;;;6122447;23;20624;-85
2023/12/26 10:37:58;;;;;;;2.63;1.00;;;17.40;53.00;;;;;;6195682;23;20154;-85
2023/12/26 10:40:32;;;;;;;1.83;0.80;;;17.40;53.30;;;;;;6143954;23;20588;-85
2023/12/26 10:43:05;;;;;;;1.20;0.80;;;17.50;52.80;;;;;;6117336;23;20149;-84
2023/12/26 10:45:38;;;;;;;0.95;0.80;;;17.50;53.00;;;;;;6115946;23;20164;-84
2023/12/26 10:48:11;;;;;;;2.35;0.90;;;17.50;52.70;;;;;;6092305;23;20169;-84
2023/12/26 10:50:43;;;;;;;4.20;0.90;;;17.50;53.10;;;;;;6140520;23;20157;-83
2023/12/26 10:53:21;;;;;;;5.05;0.90;;;17.50;52.80;;;;;;6091743;23;20477;-87
2023/12/26 10:55:56;;;;;;;2.85;1.00;;;17.50;53.70;;;;;;6140543;23;20186;-85
2023/12/26 10:58:45;;;;;;;1.35;0.90;;;17.40;53.10;;;;;;6116330;23;20639;-85
2023/12/26 11:01:17;;;;;;;2.72;0.80;;;17.40;53.10;;;;;;6122392;23;20225;-85
2023/12/26 11:03:48;;;;;;;5.13;0.95;;;17.40;52.60;;;;;;6091111;23;20161;-84
2023/12/26 11:06:18;;;;;;;6.88;0.90;;;17.40;53.20;;;;;;6115243;23;20487;-85
2023/12/26 11:08:49;;;;;;;2.88;1.27;;;17.40;53.30;;;;;;6139889;23;20168;-85
2023/12/26 11:11:20;;;;;;;7.35;1.25;;;17.40;52.90;;;;;;6116158;23;20609;-84
2023/12/26 11:13:50;;;;;;;4.13;1.10;;;17.40;53.60;;;;;;6139117;23;20233;-85
2023/12/26 11:16:20;;;;;;;5.88;1.17;;;17.40;53.10;;;;;;6116186;23;20209;-84
2023/12/26 11:18:50;;;;;;;6.47;1.20;;;17.50;53.40;;;;;;6117980;23;20157;-86
2023/12/26 11:21:20;;;;;;;2.58;0.95;;;17.50;52.70;;;;;;6142167;23;20521;-85
2023/12/26 11:23:46;;;;;;;5.07;0.93;;;17.50;51.60;;;;;;6141019;23;20173;-85
2023/12/26 11:39:38;;;;;;;6.05;1.27;;;17.50;52.00;;;;;;6230045;23;20173;-85
2023/12/26 11:42:07;;;;;;;6.13;1.13;;;17.60;52.70;;;;;;6120232;23;20216;-85
2023/12/26 11:44:36;;;;;;;5.10;1.33;;;17.50;53.00;;;;;;6118882;23;20203;-86
2023/12/26 11:47:07;;;;;;;3.08;0.88;;;17.50;52.60;;;;;;6143536;23;20586;-84
2023/12/26 11:49:36;;;;;;;3.72;0.80;;;17.50;53.00;;;;;;6142748;23;20149;-85
2023/12/26 11:52:06;;;;;;;3.10;0.75;;;17.50;53.40;;;;;;6166898;23;20146;-85
2023/12/26 11:54:35;;;;;;;4.78;1.00;;;17.50;52.40;;;;;;6118176;23;20663;-85
2023/12/26 11:57:04;;;;;;;2.55;1.17;;;17.50;53.00;;;;;;6117932;23;20489;-83
2023/12/26 11:59:35;;;;;;;2.92;0.73;;;17.50;53.60;;;;;;6142700;23;20157;-86
2023/12/26 12:02:01;;;;;;;2.40;0.90;;;17.50;53.10;;;;;;6118181;23;20146;-84
2023/12/26 12:04:28;;;;;;;3.92;1.00;;;17.50;52.90;;;;;;6224558;23;20130;-86
2023/12/26 12:07:09;;;;;;;3.95;0.90;;;17.40;52.80;;;;;;6171035;23;20134;-84
2023/12/26 12:09:38;;;;;;;3.05;1.00;;;17.50;53.00;;;;;;6220337;23;20203;-85
2023/12/26 12:12:04;;;;;;;7.97;1.30;;;17.50;53.40;;;;;;6170253;23;20185;-85
2023/12/26 12:14:30;;;;;;;1.27;0.90;;;17.40;53.90;;;;;;6195304;23;20135;-85
2023/12/26 12:17:02;;;;;;;6.20;1.10;;;17.40;53.00;;;;;;6170734;23;20469;-86
2023/12/26 12:19:28;;;;;;;3.92;0.98;;;17.50;53.60;;;;;;6145848;23;20165;-84
2023/12/26 12:21:54;;;;;;;5.95;1.20;;;17.50;53.00;;;;;;6168181;23;20185;-85
2023/12/26 12:24:23;;;;;;;6.88;0.85;;;17.40;53.40;;;;;;6168339;23;20489;-85
2023/12/26 12:27:08;;;;;;;3.83;0.98;;;17.50;53.60;;;;;;6143307;23;20158;-84
2023/12/26 12:29:56;;;;;;;5.45;0.90;;;17.40;53.10;;;;;;6143590;23;20150;-84
2023/12/26 12:32:36;;;;;;;1.63;1.00;;;17.60;52.60;;;;;;6126237;23;20166;-86
2023/12/26 12:35:20;;;;;;;0.95;0.70;;;17.60;53.60;;;;;;6129255;23;20181;-86
2023/12/26 12:37:51;;;;;;;5.85;0.90;;;17.70;53.30;;;;;;6122874;23;20233;-85
2023/12/26 12:40:38;;;;;;;4.80;0.82;;;17.60;53.00;;;;;;6146473;23;20149;-85
2023/12/26 12:43:14;;;;;;;2.30;1.13;;;17.50;53.30;;;;;;6132606;23;20319;-83
2023/12/26 12:46:04;;;;;;;2.95;0.85;;;17.50;53.30;;;;;;6128780;23;20181;-85
2023/12/26 12:48:38;;;;;;;5.75;1.10;;;17.50;53.30;;;;;;6114189;23;20206;-85
2023/12/26 12:51:04;;;;;;;4.00;0.75;;;17.60;53.70;;;;;;6148566;23;20164;-85
2023/12/26 12:53:34;;;;;;;6.45;1.08;;;17.50;53.80;;;;;;6169328;23;20142;-86
2023/12/26 12:56:02;;;;;;;5.68;0.95;;;17.50;53.90;;;;;;6144799;23;20198;-85
2023/12/26 12:58:29;;;;;;;2.15;1.00;;;17.50;53.10;;;;;;6094534;23;20154;-85
2023/12/26 13:00:57;;;;;;;7.53;1.30;;;17.50;52.80;;;;;;6120500;23;20597;-86
2023/12/26 13:03:27;;;;;;;11.73;1.50;;;17.50;53.80;;;;;;6123418;23;20150;-86
2023/12/26 13:05:53;;;;;;;18.20;1.80;;;17.50;53.60;;;;;;6150859;23;20154;-86
2023/12/26 13:08:20;;;;;;;10.30;1.30;;;17.50;54.20;;;;;;6151790;23;20573;-82
2023/12/26 13:10:46;;;;;;;3.95;1.10;;;17.50;54.30;;;;;;6120769;23;20164;-85
2023/12/26 13:13:13;;;;;;;6.53;1.10;;;17.50;53.10;;;;;;6191439;23;20205;-84
2023/12/26 13:15:40;;;;;;;7.65;0.98;;;17.50;53.40;;;;;;6092181;23;20617;-85
2023/12/26 13:18:07;;;;;;;4.35;1.30;;;17.50;53.70;;;;;;6141501;23;20251;-84
2023/12/26 13:20:33;;;;;;;10.85;1.48;;;17.50;53.50;;;;;;6122984;23;20212;-82
2023/12/26 13:22:59;;;;;;;9.43;1.08;;;17.50;53.30;;;;;;6173732;23;20162;-83
2023/12/26 13:25:26;;;;;;;6.10;1.05;;;17.50;53.20;;;;;;6149548;23;20154;-83
2023/12/26 13:28:04;;;;;;;8.18;1.00;;;17.60;52.70;;;;;;6154595;23;20285;-84